createdAt,value
2023-06-29T00:01:36.750Z,70.90
2023-06-29T00:04:05.085Z,71.40
2023-06-29T00:06:38.122Z,72.20
2023-06-29T00:09:07.400Z,72.50
2023-06-29T00:11:35.580Z,73.00
2023-06-29T00:14:03.482Z,73.40
2023-06-29T00:16:32.316Z,74.00
2023-06-29T00:19:01.443Z,74.40
2023-06-29T00:21:30.236Z,74.90
2023-06-29T00:23:58.090Z,75.60
2023-06-29T00:26:30.277Z,76.10
2023-06-29T00:28:58.426Z,75.90
2023-06-29T00:31:26.442Z,76.00
2023-06-29T00:33:54.354Z,76.40
2023-06-29T00:36:22.321Z,76.50
2023-06-29T00:38:50.281Z,76.90
2023-06-29T00:41:18.208Z,77.90
2023-06-29T00:43:47.697Z,78.70
2023-06-29T00:46:19.894Z,79.70
2023-06-29T00:48:48.596Z,80.50
2023-06-29T00:51:17.574Z,81.70
2023-06-29T00:53:46.216Z,82.60
2023-06-29T00:56:14.262Z,83.70
2023-06-29T00:58:42.348Z,84.80
2023-06-29T01:01:11.611Z,86.20
2023-06-29T01:03:41.735Z,87.00
2023-06-29T01:06:14.329Z,88.00
2023-06-29T01:08:46.621Z,89.10
2023-06-29T01:11:15.952Z,90.50
2023-06-29T01:13:45.710Z,90.70
2023-06-29T01:16:16.848Z,91.30
2023-06-29T01:18:46.180Z,92.10
2023-06-29T01:21:15.227Z,92.70
2023-06-29T01:23:44.809Z,93.50
2023-06-29T01:26:14.310Z,94.40
2023-06-29T01:28:42.190Z,95.10
2023-06-29T01:31:10.769Z,95.80
2023-06-29T01:33:38.890Z,96.60
2023-06-29T01:36:13.146Z,97.20
2023-06-29T01:38:46.285Z,97.70
2023-06-29T01:41:17.991Z,98.10
2023-06-29T01:43:46.966Z,98.60
2023-06-29T01:46:15.933Z,98.90
2023-06-29T01:48:44.584Z,99.30
2023-06-29T01:51:12.715Z,99.70
2023-06-29T01:53:40.690Z,99.90
2023-06-29T01:56:08.703Z,99.90
2023-06-29T01:58:37.931Z,99.90
2023-06-29T02:01:05.852Z,99.90
2023-06-29T02:03:34.008Z,99.90
2023-06-29T02:06:02.007Z,99.90
2023-06-29T02:08:29.966Z,99.40
2023-06-29T02:10:57.842Z,99.50
2023-06-29T02:13:25.764Z,99.30
2023-06-29T02:15:55.091Z,99.00
2023-06-29T02:18:23.282Z,99.00
2023-06-29T02:20:51.230Z,98.70
2023-06-29T02:23:19.196Z,99.00
2023-06-29T02:25:47.166Z,99.10
2023-06-29T02:28:15.184Z,99.00
2023-06-29T02:30:43.103Z,99.10
2023-06-29T02:33:12.475Z,99.30
2023-06-29T02:35:40.844Z,99.40
2023-06-29T02:38:08.847Z,99.40
2023-06-29T02:40:36.852Z,99.60
2023-06-29T02:43:04.801Z,99.70
2023-06-29T02:45:32.719Z,99.90
2023-06-29T02:48:00.655Z,99.90
2023-06-29T02:50:29.966Z,99.90
2023-06-29T02:52:57.852Z,99.90
2023-06-29T02:55:26.048Z,99.90
2023-06-29T02:57:54.363Z,99.90
2023-06-29T03:00:22.419Z,99.90
2023-06-29T03:02:50.514Z,99.90
2023-06-29T03:05:18.569Z,99.90
2023-06-29T03:07:47.970Z,99.90
2023-06-29T03:10:16.089Z,99.90
2023-06-29T03:12:44.224Z,99.90
2023-06-29T03:15:12.554Z,99.90
2023-06-29T03:17:40.528Z,99.90
2023-06-29T03:20:09.443Z,99.90
2023-06-29T03:22:37.369Z,99.90
2023-06-29T03:25:08.770Z,99.90
2023-06-29T03:27:36.673Z,99.90
2023-06-29T03:30:05.366Z,99.90
2023-06-29T03:32:33.323Z,99.90
2023-06-29T03:35:01.359Z,99.90
2023-06-29T03:37:29.223Z,99.90
2023-06-29T03:39:57.178Z,99.90
2023-06-29T03:42:27.025Z,99.90
2023-06-29T03:44:54.977Z,99.90
2023-06-29T03:47:22.971Z,99.90
2023-06-29T03:49:50.884Z,99.90
2023-06-29T03:52:18.825Z,98.80
2023-06-29T03:54:46.677Z,96.90
2023-06-29T03:57:14.668Z,94.80
2023-06-29T03:59:43.925Z,93.10
2023-06-29T04:02:12.727Z,90.90
2023-06-29T04:04:40.796Z,88.70
2023-06-29T04:07:08.752Z,85.60
2023-06-29T04:09:36.682Z,81.30
2023-06-29T04:12:04.919Z,77.90
2023-06-29T04:14:32.792Z,74.50
2023-06-29T04:17:02.155Z,72.00
2023-06-29T04:19:30.114Z,69.40
2023-06-29T04:21:58.528Z,67.00
2023-06-29T04:24:26.461Z,65.00
2023-06-29T04:26:54.357Z,62.70
2023-06-29T04:29:22.319Z,60.50
2023-06-29T04:31:50.217Z,58.80
2023-06-29T04:34:19.723Z,57.10
2023-06-29T04:36:47.663Z,55.70
2023-06-29T04:39:15.745Z,53.80
2023-06-29T04:41:44.211Z,52.70
2023-06-29T04:44:12.252Z,51.20
2023-06-29T04:46:40.611Z,49.60
2023-06-29T04:49:10.952Z,48.50
2023-06-29T04:51:40.287Z,48.10
2023-06-29T04:54:08.221Z,46.40
2023-06-29T04:56:36.407Z,45.40
2023-06-29T04:59:04.360Z,44.20
2023-06-29T05:01:32.206Z,43.40
2023-06-29T05:04:02.573Z,42.60
2023-06-29T05:06:30.889Z,41.80
2023-06-29T05:09:00.230Z,40.70
2023-06-29T05:11:28.183Z,39.90
2023-06-29T05:13:56.072Z,39.20
2023-06-29T05:16:24.049Z,38.10
2023-06-29T05:18:51.953Z,37.60
2023-06-29T05:21:19.856Z,36.60
2023-06-29T05:23:47.702Z,36.00
2023-06-29T05:26:16.911Z,35.30
2023-06-29T05:28:59.993Z,34.90
2023-06-29T05:31:32.877Z,34.50
2023-06-29T05:34:00.914Z,34.00
2023-06-29T05:36:30.438Z,33.30
2023-06-29T05:38:58.296Z,32.60
2023-06-29T05:41:27.622Z,32.00
2023-06-29T05:43:55.634Z,32.30
2023-06-29T05:46:24.744Z,32.10
2023-06-29T05:48:52.682Z,31.40
2023-06-29T05:51:20.799Z,30.90
2023-06-29T05:53:48.761Z,30.40
2023-06-29T05:56:16.677Z,30.00
2023-06-29T05:58:46.003Z,30.00
2023-06-29T06:01:14.150Z,29.80
2023-06-29T06:03:42.139Z,29.40
2023-06-29T06:06:11.287Z,28.20
2023-06-29T06:08:39.188Z,28.10
2023-06-29T06:11:07.242Z,27.50
2023-06-29T06:13:35.361Z,27.30
2023-06-29T06:16:05.844Z,26.60
2023-06-29T06:18:33.809Z,26.60
2023-06-29T06:21:01.713Z,26.80
2023-06-29T06:23:31.799Z,26.60
2023-06-29T06:26:01.127Z,26.40
2023-06-29T06:28:29.101Z,26.00
2023-06-29T06:30:57.074Z,25.80
2023-06-29T06:33:31.383Z,25.90
2023-06-29T06:36:00.505Z,25.40
2023-06-29T06:38:44.761Z,25.80
2023-06-29T06:41:17.107Z,25.90
2023-06-29T06:43:44.972Z,25.80
2023-06-29T06:46:13.121Z,25.70
2023-06-29T06:48:42.458Z,25.70
2023-06-29T06:51:10.472Z,25.40
2023-06-29T06:53:38.472Z,25.70
2023-06-29T06:56:06.562Z,25.90
2023-06-29T06:58:35.152Z,25.60
2023-06-29T07:01:03.648Z,25.60
2023-06-29T07:03:32.025Z,25.30
2023-06-29T07:06:01.327Z,25.50
2023-06-29T07:08:29.873Z,25.00
2023-06-29T07:10:57.767Z,24.70
2023-06-29T07:13:26.337Z,24.60
2023-06-29T07:15:54.315Z,24.20
2023-06-29T07:18:22.544Z,24.30
2023-06-29T07:25:53.830Z,24.20
2023-06-29T07:28:21.835Z,24.00
2023-06-29T07:30:51.634Z,24.00
2023-06-29T07:33:19.660Z,24.30
2023-06-29T07:35:48.694Z,24.20
2023-06-29T07:38:16.616Z,23.80
2023-06-29T07:40:48.746Z,23.30
2023-06-29T07:43:17.743Z,23.10
2023-06-29T07:45:45.959Z,22.80
2023-06-29T07:48:14.367Z,22.70
2023-06-29T07:50:42.460Z,22.30
2023-06-29T07:53:10.293Z,22.10
2023-06-29T07:55:38.298Z,22.20
2023-06-29T08:00:38.248Z,21.70
2023-06-29T08:03:06.339Z,22.00
2023-06-29T08:08:05.760Z,21.60
2023-06-29T08:10:33.806Z,22.10
2023-06-29T08:13:04.954Z,22.40
2023-06-29T08:15:35.472Z,22.70
2023-06-29T08:18:03.523Z,22.60
2023-06-29T08:20:31.680Z,22.70
2023-06-29T08:22:59.780Z,22.80
2023-06-29T08:25:27.697Z,22.50
2023-06-29T08:27:55.604Z,21.80
2023-06-29T08:30:24.186Z,21.60
2023-06-29T08:32:53.688Z,21.50
2023-06-29T08:35:21.760Z,21.90
2023-06-29T08:37:49.654Z,22.30
2023-06-29T08:40:22.558Z,22.30
2023-06-29T08:42:50.815Z,22.50
2023-06-29T08:45:19.086Z,22.20
2023-06-29T08:47:52.778Z,22.20
2023-06-29T08:50:27.036Z,22.30
2023-06-29T08:52:56.668Z,22.30
2023-06-29T08:55:25.820Z,22.30
2023-06-29T08:57:55.172Z,22.00
2023-06-29T09:00:25.815Z,21.80
2023-06-29T09:02:56.191Z,22.10
2023-06-29T09:05:26.643Z,22.40
2023-06-29T09:07:55.089Z,22.40
2023-06-29T09:10:23.774Z,22.70
2023-06-29T09:12:53.652Z,22.30
2023-06-29T09:15:25.238Z,22.00
2023-06-29T09:17:56.943Z,21.70
2023-06-29T09:20:28.768Z,21.60
2023-06-29T09:22:57.097Z,21.40
2023-06-29T09:25:34.481Z,21.50
2023-06-29T09:28:04.889Z,21.30
2023-06-29T09:30:39.903Z,21.10
2023-06-29T09:33:09.716Z,20.80
2023-06-29T09:35:41.372Z,20.60
2023-06-29T09:38:09.729Z,20.60
2023-06-29T09:40:52.465Z,20.40
2023-06-29T09:43:22.047Z,20.60
2023-06-29T09:45:50.461Z,20.80
2023-06-29T09:50:57.213Z,20.80
2023-06-29T09:53:32.606Z,20.90
2023-06-29T09:56:02.180Z,20.60
2023-06-29T09:58:30.806Z,20.50
2023-06-29T10:00:59.694Z,20.20
2023-06-29T10:03:29.358Z,20.00
2023-06-29T10:06:04.329Z,20.80
2023-06-29T10:08:36.744Z,21.90
2023-06-29T10:11:07.255Z,22.30
2023-06-29T10:13:42.204Z,22.20
2023-06-29T10:16:12.592Z,22.20
2023-06-29T10:18:44.207Z,21.70
2023-06-29T10:21:13.707Z,21.30
2023-06-29T10:23:43.673Z,20.90
2023-06-29T10:26:13.263Z,20.90
2023-06-29T10:28:41.862Z,21.00
2023-06-29T10:31:10.091Z,20.90
2023-06-29T10:33:47.776Z,20.50
2023-06-29T10:36:18.549Z,21.00
2023-06-29T10:38:46.838Z,21.30
2023-06-29T10:41:27.333Z,21.40
2023-06-29T10:44:00.294Z,22.00
2023-06-29T10:46:44.014Z,21.40
2023-06-29T10:49:23.168Z,21.70
2023-06-29T10:51:54.117Z,21.80
2023-06-29T10:54:24.524Z,21.30
2023-06-29T10:56:59.884Z,21.30
2023-06-29T10:59:28.166Z,21.30
2023-06-29T11:01:56.378Z,21.80
2023-06-29T11:04:24.981Z,22.70
2023-06-29T11:06:54.559Z,23.50
2023-06-29T11:09:22.750Z,23.70
2023-06-29T11:11:51.192Z,23.70
2023-06-29T11:14:20.171Z,23.50
2023-06-29T11:16:48.943Z,23.30
2023-06-29T11:19:16.910Z,23.30
2023-06-29T11:21:44.875Z,23.40
2023-06-29T11:24:14.985Z,23.20
2023-06-29T11:26:43.336Z,23.40
2023-06-29T11:29:11.357Z,23.80
2023-06-29T11:31:40.654Z,24.10
2023-06-29T11:34:14.132Z,24.70
2023-06-29T11:36:44.092Z,24.70
2023-06-29T11:39:20.132Z,25.10
2023-06-29T11:41:49.942Z,26.10
2023-06-29T11:44:17.978Z,26.60
2023-06-29T11:46:54.111Z,26.80
2023-06-29T11:49:27.761Z,26.50
2023-06-29T11:51:56.057Z,25.80
2023-06-29T11:54:25.505Z,26.00
2023-06-29T11:56:55.280Z,26.10
2023-06-29T11:59:23.267Z,25.60
2023-06-29T12:01:51.435Z,26.00
2023-06-29T12:04:19.432Z,26.00
2023-06-29T12:06:54.287Z,26.80
2023-06-29T12:09:22.673Z,27.60
2023-06-29T12:12:00.159Z,28.20
2023-06-29T12:14:30.076Z,28.40
2023-06-29T12:19:34.093Z,28.80
2023-06-29T12:22:02.410Z,28.60
2023-06-29T12:24:31.930Z,28.90
2023-06-29T12:27:02.679Z,29.40
2023-06-29T12:29:30.541Z,29.50
2023-06-29T12:32:01.193Z,29.50
2023-06-29T12:34:32.287Z,29.60
2023-06-29T12:37:01.223Z,29.90
2023-06-29T12:39:29.554Z,30.10
2023-06-29T12:41:57.407Z,29.90
2023-06-29T12:44:27.671Z,30.00
2023-06-29T12:46:57.547Z,30.50
2023-06-29T12:49:27.855Z,31.50
2023-06-29T12:51:55.975Z,31.90
2023-06-29T12:54:23.987Z,31.60
2023-06-29T12:56:52.000Z,31.50
2023-06-29T12:59:19.908Z,31.80
2023-06-29T13:01:49.421Z,32.10
2023-06-29T13:04:17.470Z,32.40
2023-06-29T13:06:45.474Z,32.30
2023-06-29T13:09:13.595Z,32.00
2023-06-29T13:11:43.469Z,31.20
2023-06-29T13:14:11.457Z,31.10
2023-06-29T13:16:39.478Z,31.30
2023-06-29T13:19:09.322Z,31.60
2023-06-29T13:21:37.474Z,31.80
2023-06-29T13:24:05.754Z,30.70
2023-06-29T13:26:33.720Z,31.10
2023-06-29T13:29:01.682Z,31.00
2023-06-29T13:31:29.640Z,31.20
2023-06-29T13:33:57.824Z,31.00
2023-06-29T13:36:27.107Z,30.80
2023-06-29T13:38:55.016Z,30.80
2023-06-29T13:41:36.329Z,30.90
2023-06-29T13:44:04.789Z,30.60
2023-06-29T13:46:32.887Z,31.30
2023-06-29T13:49:00.927Z,32.20
2023-06-29T13:51:31.557Z,32.00
2023-06-29T13:54:00.114Z,32.30
2023-06-29T13:56:31.056Z,32.70
2023-06-29T13:58:59.229Z,32.50
2023-06-29T14:01:27.304Z,32.70
2023-06-29T14:03:55.274Z,33.30
2023-06-29T14:06:23.332Z,33.50
2023-06-29T14:08:53.514Z,33.40
2023-06-29T14:11:21.422Z,33.40
2023-06-29T14:13:49.316Z,33.10
2023-06-29T14:16:17.266Z,33.00
2023-06-29T14:18:45.237Z,33.10
2023-06-29T14:21:13.257Z,33.60
2023-06-29T14:23:41.184Z,33.50
2023-06-29T14:26:10.465Z,33.10
2023-06-29T14:28:38.447Z,32.90
2023-06-29T14:31:06.495Z,33.40
2023-06-29T14:33:35.686Z,33.30
2023-06-29T14:36:05.379Z,33.40
2023-06-29T14:38:33.507Z,33.20
2023-06-29T14:41:03.019Z,32.90
2023-06-29T14:43:32.662Z,32.90
2023-06-29T14:46:00.594Z,33.40
2023-06-29T14:48:28.557Z,33.50
2023-06-29T14:50:56.724Z,33.20
2023-06-29T14:53:25.287Z,33.80
2023-06-29T14:56:06.282Z,33.60
2023-06-29T14:58:35.793Z,33.10
2023-06-29T15:01:03.926Z,33.80
2023-06-29T15:03:32.244Z,34.00
2023-06-29T15:06:00.424Z,33.90
2023-06-29T15:08:28.440Z,33.90
2023-06-29T15:10:56.507Z,33.70
2023-06-29T15:13:24.566Z,33.80
2023-06-29T15:15:53.832Z,34.40
2023-06-29T15:18:21.740Z,34.00
2023-06-29T15:20:49.998Z,34.60
2023-06-29T15:23:17.897Z,34.90
2023-06-29T15:25:46.282Z,35.10
2023-06-29T15:28:14.533Z,35.00
2023-06-29T15:30:52.753Z,35.00
2023-06-29T15:33:22.465Z,34.90
2023-06-29T15:35:50.427Z,35.10
2023-06-29T15:38:20.388Z,35.10
2023-06-29T15:40:50.074Z,35.20
2023-06-29T15:43:18.220Z,35.10
2023-06-29T15:45:46.379Z,35.10
2023-06-29T15:48:15.886Z,35.70
2023-06-29T15:50:45.471Z,35.90
2023-06-29T15:53:13.618Z,36.40
2023-06-29T15:55:41.728Z,36.70
2023-06-29T15:58:10.173Z,36.70
2023-06-29T16:00:39.657Z,36.90
2023-06-29T16:03:07.887Z,36.80
2023-06-29T16:05:35.969Z,37.30
2023-06-29T16:08:06.140Z,37.00
2023-06-29T16:10:34.678Z,37.20
2023-06-29T16:13:02.683Z,37.80
2023-06-29T16:15:30.901Z,37.40
2023-06-29T16:17:59.120Z,37.70
2023-06-29T16:20:27.050Z,37.90
2023-06-29T16:22:55.020Z,38.40
2023-06-29T16:25:25.297Z,38.70
2023-06-29T16:27:54.363Z,42.10
2023-06-29T16:30:25.558Z,43.90
2023-06-29T16:32:54.159Z,46.10
2023-06-29T16:35:22.796Z,47.00
2023-06-29T16:37:50.853Z,47.70
2023-06-29T16:40:19.202Z,48.40
2023-06-29T16:42:49.076Z,48.20
2023-06-29T16:45:17.635Z,48.80
2023-06-29T16:47:45.698Z,48.70
2023-06-29T16:50:14.425Z,48.50
2023-06-29T16:52:42.720Z,48.40
2023-06-29T16:55:11.407Z,48.30
2023-06-29T16:57:39.865Z,47.80
2023-06-29T17:00:11.812Z,47.80
2023-06-29T17:02:40.229Z,47.50
2023-06-29T17:05:10.008Z,47.00
2023-06-29T17:07:38.548Z,46.90
2023-06-29T17:10:07.930Z,46.60
2023-06-29T17:12:36.103Z,46.80
2023-06-29T17:15:04.682Z,46.70
2023-06-29T17:17:34.285Z,46.90
2023-06-29T17:20:04.029Z,47.20
2023-06-29T17:22:33.056Z,47.30
2023-06-29T17:25:01.234Z,47.50
2023-06-29T17:27:29.305Z,47.40
2023-06-29T17:29:57.560Z,48.20
2023-06-29T17:32:25.768Z,47.70
2023-06-29T17:34:55.631Z,48.00
2023-06-29T17:37:23.874Z,48.20
2023-06-29T17:39:52.257Z,48.20
2023-06-29T17:42:21.966Z,48.00
2023-06-29T17:44:50.291Z,48.10
2023-06-29T17:47:18.781Z,48.20
2023-06-29T17:49:47.193Z,48.30
2023-06-29T17:52:17.466Z,48.40
2023-06-29T17:54:45.600Z,48.80
2023-06-29T17:57:13.708Z,48.90
2023-06-29T17:59:42.040Z,48.90
2023-06-29T18:02:10.545Z,49.10
2023-06-29T18:04:39.043Z,49.40
2023-06-29T18:07:08.699Z,49.60
2023-06-29T18:09:38.230Z,50.40
2023-06-29T18:12:07.421Z,50.20
2023-06-29T18:14:35.693Z,50.40
2023-06-29T18:17:04.781Z,50.20
2023-06-29T18:19:33.218Z,50.80
2023-06-29T18:22:01.539Z,50.80
2023-06-29T18:24:29.784Z,51.00
2023-06-29T18:26:59.223Z,51.30
2023-06-29T18:29:30.568Z,51.60
2023-06-29T18:31:58.632Z,51.90
2023-06-29T18:34:28.353Z,52.10
2023-06-29T18:36:57.756Z,51.80
2023-06-29T18:39:25.718Z,52.20
2023-06-29T18:41:53.789Z,52.20
2023-06-29T18:44:23.422Z,52.40
2023-06-29T18:47:11.478Z,52.80
2023-06-29T18:52:12.583Z,53.20
2023-06-29T18:54:41.381Z,53.50
2023-06-29T18:57:12.545Z,54.20
2023-06-29T18:59:43.506Z,53.90
2023-06-29T19:02:11.919Z,53.90
2023-06-29T19:04:40.168Z,54.10
2023-06-29T19:07:10.826Z,54.20
2023-06-29T19:09:45.183Z,54.20
2023-06-29T19:12:14.270Z,54.40
2023-06-29T19:14:43.710Z,54.60
2023-06-29T19:17:11.867Z,54.80
2023-06-29T19:19:40.073Z,55.00
2023-06-29T19:22:08.620Z,55.10
2023-06-29T19:24:36.768Z,55.00
2023-06-29T19:27:07.073Z,55.00
2023-06-29T19:29:35.415Z,55.20
2023-06-29T19:32:06.856Z,55.50
2023-06-29T19:34:35.976Z,55.40
2023-06-29T19:37:04.215Z,55.50
2023-06-29T19:39:32.432Z,55.60
2023-06-29T19:42:00.426Z,55.90
2023-06-29T19:44:29.658Z,56.00
2023-06-29T19:46:57.766Z,56.30
2023-06-29T19:49:28.014Z,56.60
2023-06-29T19:51:58.782Z,56.80
2023-06-29T19:54:27.506Z,56.80
2023-06-29T19:56:55.712Z,57.00
2023-06-29T19:59:23.713Z,57.30
2023-06-29T20:01:51.905Z,57.40
2023-06-29T20:04:20.403Z,57.60
2023-06-29T20:06:51.337Z,57.70
2023-06-29T20:09:19.669Z,57.70
2023-06-29T20:11:47.964Z,58.10
2023-06-29T20:14:19.766Z,57.80
2023-06-29T20:16:48.111Z,58.10
2023-06-29T20:19:16.307Z,58.10
2023-06-29T20:21:45.273Z,58.50
2023-06-29T20:24:14.627Z,58.60
2023-06-29T20:26:46.310Z,58.70
2023-06-29T20:29:15.393Z,58.80
2023-06-29T20:31:43.424Z,59.10
2023-06-29T20:34:11.562Z,59.40
2023-06-29T20:36:39.549Z,59.80
2023-06-29T20:39:07.584Z,60.20
2023-06-29T20:41:37.090Z,61.00
2023-06-29T20:44:14.892Z,60.90
2023-06-29T20:46:43.207Z,61.10
2023-06-29T20:49:11.492Z,61.30
2023-06-29T20:51:39.562Z,61.50
2023-06-29T20:54:08.615Z,61.70
2023-06-29T20:56:38.092Z,61.90
2023-06-29T20:59:06.219Z,61.90
2023-06-29T21:01:34.749Z,61.90
2023-06-29T21:04:02.923Z,61.90
2023-06-29T21:06:31.107Z,61.80
2023-06-29T21:08:59.066Z,62.10
2023-06-29T21:11:27.192Z,62.10
2023-06-29T21:13:57.455Z,62.30
2023-06-29T21:16:26.720Z,62.40
2023-06-29T21:18:55.433Z,62.30
2023-06-29T21:21:23.911Z,63.20
2023-06-29T21:23:53.086Z,63.30
2023-06-29T21:26:23.419Z,63.60
2023-06-29T21:28:55.844Z,63.70
2023-06-29T21:31:26.412Z,63.80
2023-06-29T21:33:54.907Z,63.90
2023-06-29T21:36:23.134Z,64.00
2023-06-29T21:38:51.543Z,64.20
2023-06-29T21:41:19.564Z,64.30
2023-06-29T21:43:47.505Z,64.70
2023-06-29T21:46:15.482Z,64.90
2023-06-29T21:48:44.959Z,65.10
2023-06-29T21:51:13.014Z,65.60
2023-06-29T21:53:40.957Z,65.80
2023-06-29T21:56:21.366Z,66.20
2023-06-29T21:58:54.268Z,66.50
2023-06-29T22:01:22.761Z,67.00
2023-06-29T22:03:52.219Z,67.20
2023-06-29T22:06:20.330Z,67.50
2023-06-29T22:08:48.293Z,67.60
2023-06-29T22:11:16.297Z,67.90
2023-06-29T22:13:45.552Z,68.20
2023-06-29T22:16:13.568Z,68.20
2023-06-29T22:18:41.562Z,68.50
2023-06-29T22:21:11.089Z,68.60
2023-06-29T22:23:39.172Z,68.50
2023-06-29T22:26:07.121Z,68.70
2023-06-29T22:28:35.050Z,68.70
2023-06-29T22:31:03.109Z,68.20
2023-06-29T22:33:31.096Z,68.90
2023-06-29T22:35:59.170Z,69.10
2023-06-29T22:38:28.523Z,69.30
2023-06-29T22:40:56.426Z,69.70
2023-06-29T22:43:24.443Z,70.00
2023-06-29T22:45:52.571Z,70.10
2023-06-29T22:48:21.404Z,70.50
2023-06-29T22:50:49.330Z,70.80
2023-06-29T22:53:17.242Z,71.10
2023-06-29T22:55:47.089Z,71.40
2023-06-29T22:58:21.784Z,72.00
2023-06-29T23:00:49.639Z,72.40
2023-06-29T23:03:17.666Z,72.90
2023-06-29T23:05:45.944Z,73.40
2023-06-29T23:08:14.197Z,73.90
2023-06-29T23:10:42.254Z,74.40
2023-06-29T23:13:17.275Z,74.50
2023-06-29T23:15:46.257Z,74.90
2023-06-29T23:18:14.927Z,75.30
2023-06-29T23:20:44.865Z,75.70
2023-06-29T23:23:14.486Z,75.90
2023-06-29T23:25:43.535Z,76.20
2023-06-29T23:28:13.003Z,76.60
2023-06-29T23:30:41.112Z,77.00
2023-06-29T23:33:09.323Z,77.40
2023-06-29T23:35:38.568Z,77.90
2023-06-29T23:38:06.686Z,78.20
2023-06-29T23:40:37.552Z,78.70
2023-06-29T23:43:06.023Z,79.10
2023-06-29T23:45:36.387Z,79.50
2023-06-29T23:48:04.984Z,80.00
2023-06-29T23:50:33.090Z,80.70
2023-06-29T23:53:01.065Z,81.40
2023-06-29T23:55:30.107Z,81.80
2023-06-29T23:57:58.178Z,82.40
